createdAt,value
2018-03-30T00:02:00.192Z,3.20
2018-03-30T00:04:29.259Z,3.10
2018-03-30T00:06:57.549Z,3.10
2018-03-30T00:09:43.820Z,3.10
2018-03-30T00:12:12.100Z,3.00
2018-03-30T00:14:40.364Z,3.00
2018-03-30T00:17:09.376Z,2.90
2018-03-30T00:19:38.403Z,2.90
2018-03-30T00:22:06.678Z,2.80
2018-03-30T00:24:35.712Z,2.80
2018-03-30T00:27:03.963Z,2.80
2018-03-30T00:29:33.005Z,2.80
2018-03-30T00:32:01.254Z,2.80
2018-03-30T00:34:29.565Z,2.90
2018-03-30T00:36:57.825Z,2.90
2018-03-30T00:39:26.097Z,2.80
2018-03-30T00:41:54.452Z,2.90
2018-03-30T00:44:22.866Z,2.90
2018-03-30T00:46:52.524Z,2.80
2018-03-30T00:49:20.852Z,2.80
2018-03-30T00:51:49.131Z,2.80
2018-03-30T00:54:17.418Z,2.80
2018-03-30T00:56:45.727Z,2.80
2018-03-30T00:59:14.040Z,2.70
2018-03-30T01:01:43.309Z,2.70
2018-03-30T01:04:11.613Z,2.80
2018-03-30T01:06:39.876Z,2.70
2018-03-30T01:09:08.900Z,2.60
2018-03-30T01:11:37.167Z,2.60
2018-03-30T01:14:06.305Z,2.60
2018-03-30T01:16:34.635Z,2.60
2018-03-30T01:19:02.885Z,2.70
2018-03-30T01:21:31.185Z,2.70
2018-03-30T01:23:59.446Z,2.60
2018-03-30T01:26:27.747Z,2.60
2018-03-30T01:28:56.020Z,2.60
2018-03-30T01:31:25.158Z,2.50
2018-03-30T01:33:54.202Z,2.40
2018-03-30T01:36:22.462Z,2.40
2018-03-30T01:38:50.722Z,2.40
2018-03-30T01:41:18.995Z,2.40
2018-03-30T01:43:48.004Z,2.40
2018-03-30T01:46:17.040Z,2.30
2018-03-30T01:48:45.326Z,2.30
2018-03-30T01:51:14.416Z,2.20
2018-03-30T01:53:42.727Z,2.20
2018-03-30T01:56:11.020Z,2.10
2018-03-30T01:58:39.295Z,2.00
2018-03-30T02:01:08.325Z,2.00
2018-03-30T02:03:36.575Z,2.00
2018-03-30T02:06:05.598Z,2.00
2018-03-30T02:11:04.335Z,2.10
2018-03-30T02:16:02.452Z,2.10
2018-03-30T02:18:30.644Z,2.10
2018-03-30T02:20:58.932Z,2.10
2018-03-30T02:23:27.195Z,2.20
2018-03-30T02:25:56.245Z,2.10
2018-03-30T02:28:24.520Z,2.10
2018-03-30T02:30:52.901Z,2.10
2018-03-30T02:33:21.165Z,2.10
2018-03-30T02:35:50.216Z,2.10
2018-03-30T02:38:18.476Z,2.10
2018-03-30T02:40:46.728Z,2.10
2018-03-30T02:43:15.030Z,2.10
2018-03-30T02:45:44.171Z,2.00
2018-03-30T02:48:12.438Z,1.90
2018-03-30T02:50:41.448Z,1.90
2018-03-30T02:53:10.563Z,1.90
2018-03-30T02:55:39.593Z,2.00
2018-03-30T02:58:07.857Z,2.00
2018-03-30T03:00:36.885Z,2.20
2018-03-30T03:03:05.919Z,2.20
2018-03-30T03:05:34.169Z,2.20
2018-03-30T03:08:03.237Z,2.20
2018-03-30T03:10:31.492Z,2.20
2018-03-30T03:12:59.751Z,2.10
2018-03-30T03:15:28.785Z,2.10
2018-03-30T03:17:57.096Z,2.00
2018-03-30T03:20:25.483Z,2.00
2018-03-30T03:22:53.772Z,2.00
2018-03-30T03:25:22.139Z,2.00
2018-03-30T03:27:50.432Z,2.10
2018-03-30T03:30:18.686Z,2.00
2018-03-30T03:32:48.028Z,1.90
2018-03-30T03:35:16.303Z,1.80
2018-03-30T03:37:44.604Z,1.90
2018-03-30T03:40:12.909Z,1.90
2018-03-30T03:42:41.386Z,2.00
2018-03-30T03:45:09.642Z,2.00
2018-03-30T03:47:37.916Z,1.90
2018-03-30T03:50:06.192Z,1.90
2018-03-30T03:52:34.455Z,1.80
2018-03-30T03:55:02.732Z,1.80
2018-03-30T03:57:31.020Z,1.70
2018-03-30T03:59:59.300Z,1.70
2018-03-30T04:02:28.461Z,1.60
2018-03-30T04:04:56.749Z,1.60
2018-03-30T04:07:25.168Z,1.60
2018-03-30T04:09:54.264Z,1.70
2018-03-30T04:12:22.529Z,1.60
2018-03-30T04:14:50.788Z,1.70
2018-03-30T04:17:19.056Z,1.60
2018-03-30T04:19:48.083Z,1.60
2018-03-30T04:22:17.196Z,1.60
2018-03-30T04:24:45.486Z,1.60
2018-03-30T04:27:13.763Z,1.70
2018-03-30T04:29:42.010Z,1.70
2018-03-30T04:32:10.277Z,1.70
2018-03-30T04:34:38.561Z,1.70
2018-03-30T04:37:06.824Z,1.60
2018-03-30T04:39:35.319Z,1.60
2018-03-30T04:42:03.587Z,1.60
2018-03-30T04:44:32.628Z,1.70
2018-03-30T04:47:00.903Z,1.60
2018-03-30T04:49:29.205Z,1.70
2018-03-30T04:51:57.492Z,1.60
2018-03-30T04:54:25.775Z,1.50
2018-03-30T04:56:54.089Z,1.50
2018-03-30T04:59:22.372Z,1.50
2018-03-30T05:01:50.626Z,1.50
2018-03-30T05:04:19.665Z,1.60
2018-03-30T05:06:48.759Z,1.50
2018-03-30T05:09:17.357Z,1.50
2018-03-30T05:11:45.612Z,1.60
2018-03-30T05:14:13.956Z,1.60
2018-03-30T05:16:42.248Z,1.60
2018-03-30T05:19:10.520Z,1.70
2018-03-30T05:21:38.793Z,1.70
2018-03-30T05:24:07.926Z,1.90
2018-03-30T05:26:36.242Z,1.90
2018-03-30T05:29:04.529Z,2.00
2018-03-30T05:31:32.884Z,2.00
2018-03-30T05:34:01.152Z,2.00
2018-03-30T05:36:30.396Z,2.10
2018-03-30T05:38:58.872Z,2.00
2018-03-30T05:41:27.230Z,2.10
2018-03-30T05:43:55.505Z,2.10
2018-03-30T05:46:23.796Z,2.20
2018-03-30T05:48:52.050Z,2.20
2018-03-30T05:51:20.320Z,2.30
2018-03-30T05:53:48.577Z,2.20
2018-03-30T05:56:16.861Z,2.20
2018-03-30T05:58:45.125Z,2.30
2018-03-30T06:01:13.412Z,2.30
2018-03-30T06:03:41.688Z,2.40
2018-03-30T06:06:09.977Z,2.50
2018-03-30T06:08:38.215Z,2.50
2018-03-30T06:11:07.265Z,2.60
2018-03-30T06:13:35.519Z,2.60
2018-03-30T06:16:04.556Z,2.90
2018-03-30T06:18:32.836Z,2.80
2018-03-30T06:21:01.124Z,3.00
2018-03-30T06:23:29.399Z,3.10
2018-03-30T06:25:58.471Z,3.40
2018-03-30T06:28:26.839Z,3.30
2018-03-30T06:30:55.200Z,3.50
2018-03-30T06:33:23.468Z,3.60
2018-03-30T06:35:52.504Z,3.90
2018-03-30T06:38:20.834Z,3.80
2018-03-30T06:40:49.072Z,3.90
2018-03-30T06:43:18.132Z,4.00
2018-03-30T06:45:46.407Z,3.90
2018-03-30T06:48:15.452Z,4.20
2018-03-30T06:50:43.706Z,4.10
2018-03-30T06:53:11.977Z,4.30
2018-03-30T06:55:40.280Z,4.40
2018-03-30T06:58:08.539Z,4.60
2018-03-30T07:00:36.808Z,4.70
2018-03-30T07:03:05.857Z,5.10
2018-03-30T07:05:34.128Z,5.00
2018-03-30T07:08:02.408Z,5.30
2018-03-30T07:10:30.707Z,5.40
2018-03-30T07:12:58.999Z,5.60
2018-03-30T07:15:27.286Z,5.80
2018-03-30T07:17:55.576Z,6.00
2018-03-30T07:20:23.861Z,6.20
2018-03-30T07:22:52.173Z,6.40
2018-03-30T07:25:20.428Z,6.60
2018-03-30T07:27:49.455Z,7.10
2018-03-30T07:30:18.488Z,7.30
2018-03-30T07:32:46.751Z,7.20
2018-03-30T07:35:15.087Z,7.50
2018-03-30T07:37:43.382Z,7.70
2018-03-30T07:40:12.402Z,8.10
2018-03-30T07:42:40.659Z,8.00
2018-03-30T07:45:08.912Z,8.30
2018-03-30T07:47:37.192Z,8.50
2018-03-30T07:50:06.326Z,8.70
2018-03-30T07:52:34.581Z,8.60
2018-03-30T07:55:03.801Z,8.70
2018-03-30T07:57:32.091Z,8.70
2018-03-30T08:00:00.359Z,8.70
2018-03-30T08:02:29.423Z,8.90
2018-03-30T08:04:57.881Z,8.80
2018-03-30T08:07:26.188Z,9.00
2018-03-30T08:09:54.460Z,9.20
2018-03-30T08:12:22.724Z,9.30
2018-03-30T08:14:51.764Z,9.50
2018-03-30T08:17:20.011Z,9.40
2018-03-30T08:19:48.273Z,9.60
2018-03-30T08:22:16.543Z,9.60
2018-03-30T08:24:44.825Z,9.60
2018-03-30T08:27:13.083Z,9.70
2018-03-30T08:29:42.133Z,10.00
2018-03-30T08:32:10.416Z,10.00
2018-03-30T08:34:38.699Z,10.10
2018-03-30T08:37:06.961Z,10.30
2018-03-30T08:39:35.998Z,10.60
2018-03-30T08:42:04.277Z,10.60
2018-03-30T08:44:32.566Z,10.70
2018-03-30T08:47:00.840Z,10.80
2018-03-30T08:49:29.994Z,11.20
2018-03-30T08:51:58.385Z,11.20
2018-03-30T08:54:26.704Z,11.30
2018-03-30T08:56:54.980Z,11.20
2018-03-30T08:59:24.043Z,11.20
2018-03-30T09:01:52.332Z,11.20
2018-03-30T09:04:20.617Z,11.30
2018-03-30T09:06:48.878Z,11.40
2018-03-30T09:09:17.213Z,11.60
2018-03-30T09:11:45.520Z,11.70
2018-03-30T09:14:13.870Z,11.80
2018-03-30T09:16:42.310Z,11.90
2018-03-30T09:19:10.581Z,12.00
2018-03-30T09:21:38.965Z,11.80
2018-03-30T09:24:07.249Z,11.90
2018-03-30T09:26:35.520Z,11.90
2018-03-30T09:29:05.293Z,12.00
2018-03-30T09:31:33.571Z,12.00
2018-03-30T09:34:01.833Z,12.00
2018-03-30T09:36:30.888Z,12.20
2018-03-30T09:38:59.219Z,12.20
2018-03-30T09:41:28.726Z,12.20
2018-03-30T09:43:57.009Z,12.20
2018-03-30T09:46:25.283Z,12.40
2018-03-30T09:48:53.579Z,12.40
2018-03-30T09:51:21.892Z,12.50
2018-03-30T09:53:50.942Z,12.60
2018-03-30T09:56:19.315Z,12.60
2018-03-30T09:58:47.624Z,12.70
2018-03-30T10:01:16.852Z,12.80
2018-03-30T10:03:48.589Z,12.80
2018-03-30T10:06:18.036Z,13.20
2018-03-30T10:08:46.321Z,13.10
2018-03-30T10:11:15.448Z,13.20
2018-03-30T10:13:43.741Z,13.20
2018-03-30T10:16:12.095Z,13.20
2018-03-30T10:18:40.379Z,13.30
2018-03-30T10:21:08.704Z,13.40
2018-03-30T10:23:36.976Z,13.50
2018-03-30T10:26:05.272Z,13.70
2018-03-30T10:28:33.538Z,13.70
2018-03-30T10:31:01.830Z,14.00
2018-03-30T10:33:30.228Z,14.30
2018-03-30T10:35:58.548Z,14.40
2018-03-30T10:38:26.878Z,14.50
2018-03-30T10:40:55.960Z,14.90
2018-03-30T10:43:24.346Z,14.80
2018-03-30T10:45:53.389Z,14.80
2018-03-30T10:48:21.780Z,14.80
2018-03-30T10:50:50.002Z,15.00
2018-03-30T10:53:18.279Z,15.20
2018-03-30T10:55:46.548Z,15.60
2018-03-30T11:00:44.496Z,15.60
2018-03-30T11:03:12.813Z,15.60
2018-03-30T11:05:41.108Z,15.60
2018-03-30T11:08:10.226Z,15.60
2018-03-30T11:10:39.262Z,15.80
2018-03-30T11:13:07.600Z,15.70
2018-03-30T11:15:35.875Z,16.10
2018-03-30T11:18:04.222Z,16.70
2018-03-30T11:20:32.507Z,17.20
2018-03-30T11:23:01.572Z,17.60
2018-03-30T11:25:29.848Z,17.50
2018-03-30T11:27:58.129Z,17.60
2018-03-30T11:30:26.470Z,17.50
2018-03-30T11:32:56.864Z,17.60
2018-03-30T11:35:25.207Z,17.60
2018-03-30T11:37:54.306Z,17.60
2018-03-30T11:40:23.442Z,17.70
2018-03-30T11:42:51.766Z,17.60
2018-03-30T11:45:20.052Z,17.80
2018-03-30T11:47:48.341Z,17.80
2018-03-30T11:50:16.629Z,17.50
2018-03-30T11:52:44.970Z,17.60
2018-03-30T11:55:13.294Z,17.40
2018-03-30T11:57:41.584Z,17.40
2018-03-30T12:00:10.657Z,17.30
2018-03-30T12:02:39.696Z,17.30
2018-03-30T12:05:07.996Z,17.20
2018-03-30T12:07:36.286Z,17.20
2018-03-30T12:10:04.617Z,17.10
2018-03-30T12:12:32.918Z,17.00
2018-03-30T12:15:01.967Z,17.50
2018-03-30T12:17:30.459Z,17.40
2018-03-30T12:19:58.782Z,17.60
2018-03-30T12:22:27.179Z,17.40
2018-03-30T12:24:55.574Z,17.20
2018-03-30T12:27:24.644Z,17.10
2018-03-30T12:29:52.953Z,17.10
2018-03-30T12:32:21.258Z,17.20
2018-03-30T12:34:49.637Z,17.30
2018-03-30T12:37:19.054Z,17.20
2018-03-30T12:39:47.357Z,17.20
2018-03-30T12:42:15.668Z,17.40
2018-03-30T12:44:44.736Z,17.50
2018-03-30T12:47:13.109Z,17.50
2018-03-30T12:49:41.402Z,17.30
2018-03-30T12:52:09.673Z,17.10
2018-03-30T12:54:37.984Z,16.90
2018-03-30T12:57:06.252Z,16.70
2018-03-30T13:02:04.278Z,16.60
2018-03-30T13:04:32.574Z,16.80
2018-03-30T13:07:00.863Z,16.80
2018-03-30T13:09:29.139Z,16.60
2018-03-30T13:11:57.457Z,16.70
2018-03-30T13:14:25.835Z,16.90
2018-03-30T13:16:54.869Z,16.90
2018-03-30T13:19:23.151Z,16.80
2018-03-30T13:21:51.445Z,17.10
2018-03-30T13:24:19.714Z,17.00
2018-03-30T13:26:48.072Z,16.80
2018-03-30T13:29:16.347Z,16.60
2018-03-30T13:31:45.411Z,16.80
2018-03-30T13:34:13.696Z,16.70
2018-03-30T13:36:41.981Z,17.10
2018-03-30T13:39:10.290Z,17.30
2018-03-30T13:41:38.566Z,17.00
2018-03-30T13:44:06.843Z,16.70
2018-03-30T13:46:35.139Z,16.70
2018-03-30T13:49:03.426Z,16.60
2018-03-30T13:51:37.749Z,16.10
2018-03-30T13:54:09.553Z,16.10
2018-03-30T13:59:42.535Z,15.70
2018-03-30T14:02:28.148Z,15.70
2018-03-30T14:05:01.190Z,15.70
2018-03-30T14:07:42.021Z,15.80
2018-03-30T14:10:20.782Z,15.90
2018-03-30T14:12:50.505Z,15.80
2018-03-30T14:15:24.215Z,15.60
2018-03-30T14:17:54.938Z,15.50
2018-03-30T14:20:23.939Z,15.50
2018-03-30T14:23:03.068Z,15.40
2018-03-30T14:25:51.741Z,15.30
2018-03-30T14:31:15.436Z,15.40
2018-03-30T14:33:43.732Z,15.50
2018-03-30T14:39:32.777Z,15.70
2018-03-30T14:42:02.595Z,15.70
2018-03-30T14:44:45.855Z,15.80
2018-03-30T14:47:27.769Z,15.80
2018-03-30T14:53:36.123Z,15.90
2018-03-30T14:56:12.573Z,15.90
2018-03-30T14:58:47.437Z,15.80
2018-03-30T15:01:32.148Z,16.30
2018-03-30T15:04:03.956Z,16.30
2018-03-30T15:06:59.531Z,16.20
2018-03-30T15:09:44.377Z,16.30
2018-03-30T15:15:31.553Z,16.10
2018-03-30T15:18:09.435Z,15.80
2018-03-30T15:20:38.613Z,15.70
2018-03-30T15:23:28.869Z,15.60
2018-03-30T15:26:09.691Z,15.70
2018-03-30T15:28:38.775Z,15.80
2018-03-30T15:34:13.007Z,15.60
2018-03-30T15:36:48.786Z,15.60
2018-03-30T15:39:18.017Z,15.40
2018-03-30T15:41:50.961Z,15.30
2018-03-30T15:44:20.021Z,15.20
2018-03-30T15:46:49.899Z,15.20
2018-03-30T15:49:18.213Z,15.20
2018-03-30T15:51:51.572Z,15.20
2018-03-30T15:54:19.852Z,15.20
2018-03-30T15:56:49.804Z,15.20
2018-03-30T15:59:18.165Z,15.20
2018-03-30T16:01:46.515Z,15.30
2018-03-30T16:04:14.850Z,15.20
2018-03-30T16:06:43.889Z,15.20
2018-03-30T16:09:17.681Z,15.20
2018-03-30T16:11:48.426Z,15.00
2018-03-30T16:14:17.557Z,14.80
2018-03-30T16:16:45.945Z,14.80
2018-03-30T16:19:13.494Z,14.70
2018-03-30T16:21:41.741Z,14.50
2018-03-30T16:24:09.264Z,14.40
2018-03-30T16:26:37.602Z,14.30
2018-03-30T16:29:05.184Z,14.30
2018-03-30T16:31:32.755Z,14.30
2018-03-30T16:34:00.235Z,14.20
2018-03-30T16:36:27.777Z,14.10
2018-03-30T16:38:55.309Z,14.00
2018-03-30T16:43:51.966Z,13.80
2018-03-30T16:46:19.406Z,13.80
2018-03-30T16:48:46.896Z,13.70
2018-03-30T16:51:14.380Z,13.70
2018-03-30T16:53:41.854Z,13.70
2018-03-30T16:56:10.160Z,13.50
2018-03-30T16:58:38.414Z,13.30
2018-03-30T17:01:05.908Z,13.30
2018-03-30T17:03:33.378Z,13.20
2018-03-30T17:06:00.853Z,13.10
2018-03-30T17:10:57.438Z,12.80
2018-03-30T17:13:25.770Z,12.60
2018-03-30T17:15:53.348Z,12.50
2018-03-30T17:18:20.888Z,12.30
2018-03-30T17:20:49.140Z,11.40
2018-03-30T17:23:16.648Z,11.40
2018-03-30T17:25:44.159Z,11.20
2018-03-30T17:28:12.829Z,10.70
2018-03-30T17:30:40.333Z,10.60
2018-03-30T17:33:07.800Z,10.40
2018-03-30T17:35:35.312Z,10.10
2018-03-30T17:38:03.535Z,9.70
2018-03-30T17:40:31.037Z,9.60
2018-03-30T17:42:59.297Z,9.40
2018-03-30T17:45:26.797Z,9.30
2018-03-30T17:47:54.292Z,9.20
2018-03-30T17:50:23.515Z,9.00
2018-03-30T17:52:51.758Z,9.00
2018-03-30T17:55:19.231Z,8.90
2018-03-30T17:57:46.743Z,9.00
2018-03-30T18:00:14.252Z,8.90
2018-03-30T18:02:41.781Z,8.90
2018-03-30T18:05:10.036Z,8.80
2018-03-30T18:07:37.513Z,8.80
2018-03-30T18:10:04.980Z,8.80
2018-03-30T18:12:32.495Z,8.80
2018-03-30T18:15:00.801Z,8.70
2018-03-30T18:17:28.288Z,8.70
2018-03-30T18:19:55.823Z,8.70
2018-03-30T18:22:24.080Z,8.60
2018-03-30T18:24:51.547Z,8.50
2018-03-30T18:27:19.032Z,8.60
2018-03-30T18:29:46.542Z,8.50
2018-03-30T18:32:14.044Z,8.50
2018-03-30T18:34:42.336Z,8.50
2018-03-30T18:37:09.923Z,8.40
2018-03-30T18:39:37.413Z,8.50
2018-03-30T18:42:04.917Z,8.40
2018-03-30T18:44:32.382Z,8.50
2018-03-30T18:47:00.943Z,8.40
2018-03-30T18:49:28.438Z,8.40
2018-03-30T18:51:55.961Z,8.30
2018-03-30T18:54:23.504Z,8.30
2018-03-30T18:56:51.030Z,8.20
2018-03-30T18:59:18.520Z,8.20
2018-03-30T19:01:46.792Z,8.10
2018-03-30T19:04:14.265Z,8.10
2018-03-30T19:06:42.544Z,8.10
2018-03-30T19:09:10.021Z,8.00
2018-03-30T19:11:37.492Z,8.10
2018-03-30T19:14:04.979Z,8.00
2018-03-30T19:16:33.209Z,8.00
2018-03-30T19:19:00.696Z,7.90
2018-03-30T19:21:29.179Z,8.00
2018-03-30T19:23:56.660Z,8.00
2018-03-30T19:26:24.132Z,7.90
2018-03-30T19:28:51.617Z,7.90
2018-03-30T19:31:19.076Z,7.90
2018-03-30T19:33:46.559Z,7.90
2018-03-30T19:36:14.045Z,7.90
2018-03-30T19:38:42.258Z,7.90
2018-03-30T19:41:09.747Z,7.80
2018-03-30T19:43:37.937Z,7.90
2018-03-30T19:46:05.396Z,7.80
2018-03-30T19:48:34.028Z,7.90
2018-03-30T19:51:01.493Z,7.80
2018-03-30T19:53:28.999Z,7.90
2018-03-30T19:55:56.484Z,7.90
2018-03-30T19:58:24.743Z,7.90
2018-03-30T20:00:52.209Z,7.80
2018-03-30T20:03:19.682Z,7.90
2018-03-30T20:05:47.135Z,7.80
2018-03-30T20:08:14.627Z,7.80
2018-03-30T20:10:42.164Z,7.80
2018-03-30T20:13:10.473Z,7.90
2018-03-30T20:15:38.003Z,7.80
2018-03-30T20:18:05.488Z,7.90
2018-03-30T20:20:33.032Z,7.90
2018-03-30T20:23:00.501Z,7.90
2018-03-30T20:25:28.794Z,8.00
2018-03-30T20:27:57.061Z,8.00
2018-03-30T20:30:25.328Z,8.00
2018-03-30T20:32:52.809Z,7.90
2018-03-30T20:35:20.291Z,7.90
2018-03-30T20:37:48.535Z,7.90
2018-03-30T20:40:16.034Z,7.90
2018-03-30T20:42:43.621Z,8.00
2018-03-30T20:45:11.053Z,8.00
2018-03-30T20:47:38.522Z,7.80
2018-03-30T20:50:05.998Z,7.80
2018-03-30T20:52:33.496Z,7.80
2018-03-30T20:55:00.992Z,7.80
2018-03-30T20:57:29.254Z,7.70
2018-03-30T20:59:56.807Z,7.60
2018-03-30T21:02:25.210Z,7.60
2018-03-30T21:04:52.709Z,7.50
2018-03-30T21:07:20.956Z,7.60
2018-03-30T21:09:48.500Z,7.60
2018-03-30T21:12:15.964Z,7.60
2018-03-30T21:14:43.452Z,7.60
2018-03-30T21:17:10.997Z,7.60
2018-03-30T21:19:38.535Z,7.50
2018-03-30T21:22:05.982Z,7.60
2018-03-30T21:24:33.525Z,7.50
2018-03-30T21:27:01.080Z,7.50
2018-03-30T21:29:28.560Z,7.50
2018-03-30T21:31:56.053Z,7.50
2018-03-30T21:34:23.551Z,7.50
2018-03-30T21:36:51.012Z,7.50
2018-03-30T21:39:18.549Z,7.50
2018-03-30T21:41:45.961Z,7.50
2018-03-30T21:44:13.421Z,7.50
2018-03-30T21:46:40.930Z,7.50
2018-03-30T21:49:09.900Z,7.50
2018-03-30T21:51:37.392Z,7.50
2018-03-30T21:54:04.893Z,7.60
2018-03-30T21:56:33.195Z,7.60
2018-03-30T21:59:00.673Z,7.50
2018-03-30T22:01:28.173Z,7.60
2018-03-30T22:03:55.702Z,7.60
2018-03-30T22:06:23.270Z,7.60
2018-03-30T22:08:50.840Z,7.60
2018-03-30T22:11:18.325Z,7.60
2018-03-30T22:13:45.847Z,7.60
2018-03-30T22:16:13.333Z,7.40
2018-03-30T22:18:41.645Z,7.50
2018-03-30T22:21:09.237Z,7.40
2018-03-30T22:23:36.695Z,7.50
2018-03-30T22:26:04.197Z,7.50
2018-03-30T22:28:31.652Z,7.50
2018-03-30T22:30:59.134Z,7.50
2018-03-30T22:33:26.669Z,7.40
2018-03-30T22:35:54.167Z,7.40
2018-03-30T22:38:21.668Z,7.50
2018-03-30T22:40:49.151Z,7.40
2018-03-30T22:43:16.624Z,7.40
2018-03-30T22:45:44.863Z,7.40
2018-03-30T22:48:12.416Z,7.40
2018-03-30T22:50:39.972Z,7.40
2018-03-30T22:53:08.289Z,7.30
2018-03-30T22:55:35.764Z,7.30
2018-03-30T22:58:03.269Z,7.30
2018-03-30T23:00:30.728Z,7.30
2018-03-30T23:02:58.287Z,7.30
2018-03-30T23:05:25.751Z,7.30
2018-03-30T23:07:53.316Z,7.30
2018-03-30T23:10:20.786Z,7.30
2018-03-30T23:12:49.035Z,7.30
2018-03-30T23:15:17.267Z,7.30
2018-03-30T23:17:45.767Z,7.20
2018-03-30T23:20:13.229Z,7.30
2018-03-30T23:22:40.708Z,7.30
2018-03-30T23:25:08.180Z,7.30
2018-03-30T23:27:35.737Z,7.30
2018-03-30T23:30:03.304Z,7.20
2018-03-30T23:32:30.803Z,7.30
2018-03-30T23:34:58.301Z,7.20
2018-03-30T23:37:25.801Z,7.20
2018-03-30T23:42:22.417Z,7.10
2018-03-30T23:44:49.968Z,7.20
2018-03-30T23:47:17.549Z,7.10
2018-03-30T23:49:45.005Z,7.20
2018-03-30T23:52:12.498Z,7.20
2018-03-30T23:54:39.959Z,7.20
2018-03-30T23:57:08.200Z,7.10
